Time;durP1;ratioP1;P1;durP2;ratioP2;P2;SDS_P1;SDS_P2;PMS_P1;PMS_P2;Temp;Humidity;BMP_temperature;BMP_pressure;BME280_temperature;BME280_humidity;BME280_pressure;Samples;Min_cycle;Max_cycle;Signal;HPM_P1;HPM_P2
2022/11/04 00:01:58;;;;;;;;;;;;;;;11.96;88.36;98820.06;5014608;28;20478;-86
2022/11/04 00:04:27;;;;;;;4.03;3.03;;;;;;;11.89;86.57;98812.34;5014848;28;19921;-86
2022/11/04 00:06:57;;;;;;;4.17;3.10;;;;;;;11.89;85.83;98822.72;5015182;28;20050;-86
2022/11/04 00:09:25;;;;;;;;;;;;;;;11.78;85.11;98826.03;5015290;28;20053;-86
2022/11/04 00:14:37;;;;;;;3.15;2.42;;;;;;;11.74;83.99;98836.28;5019372;28;20061;-86
2022/11/04 00:17:21;;;;;;;3.83;2.50;;;;;;;11.75;83.46;98849.06;5014911;28;20501;-86
2022/11/04 00:33:24;;;;;;;3.33;1.90;;;;;;;11.59;81.64;98878.97;5015714;28;20064;-86
2022/11/04 00:33:44;;;;;;;3.22;2.10;;;;;;;11.62;81.68;98892.19;5014097;28;20057;-86
2022/11/04 00:36:17;;;;;;;4.10;2.83;;;;;;;11.57;81.67;98889.69;5013567;28;20053;-86
2022/11/04 00:38:47;;;;;;;3.60;2.28;;;;;;;11.57;80.86;98898.84;5013575;28;20061;-84
2022/11/04 00:41:26;;;;;;;3.22;2.20;;;;;;;11.53;81.13;98877.63;5008269;28;20413;-86
2022/11/04 00:43:53;;;;;;;3.97;2.60;;;;;;;11.57;80.96;98881.31;5014831;28;20065;-86
2022/11/04 00:46:23;;;;;;;4.72;2.80;;;;;;;11.60;80.99;98900.09;5014099;28;20501;-86
2022/11/04 00:48:50;;;;;;;5.63;2.30;;;;;;;11.63;80.70;98888.22;5015363;28;20050;-87
2022/11/04 00:51:21;;;;;;;2.45;1.73;;;;;;;11.59;80.05;98881.75;5014021;28;20049;-86
2022/11/04 00:53:52;;;;;;;2.63;1.63;;;;;;;11.60;79.73;98894.53;5013810;28;20049;-86
2022/11/04 00:56:20;;;;;;;2.83;1.65;;;;;;;11.62;79.55;98892.19;4994679;28;20057;-87
2022/11/04 00:58:48;;;;;;;3.15;1.75;;;;;;;11.52;79.24;98906.66;5012238;28;20053;-86
2022/11/04 01:01:17;;;;;;;3.58;1.50;;;;;;;11.44;78.86;98918.78;5014113;28;20053;-86
2022/11/04 01:03:48;;;;;;;2.58;1.40;;;;;;;11.47;78.06;98902.16;5013902;28;20062;-87
2022/11/04 01:06:19;;;;;;;4.13;1.70;;;;;;;11.49;78.78;98912.97;5014138;28;20061;-86
2022/11/04 01:08:47;;;;;;;2.30;1.60;;;;;;;11.53;79.27;98923.03;5011546;28;20053;-86
2022/11/04 01:11:16;;;;;;;2.40;1.65;;;;;;;11.44;78.53;98929.94;5014089;28;20061;-86
2022/11/04 01:13:43;;;;;;;2.43;1.80;;;;;;;11.38;77.77;98938.59;5013653;28;20458;-87
2022/11/04 01:16:11;;;;;;;2.17;1.50;;;;;;;11.40;77.72;98942.97;5014364;28;20464;-87
2022/11/04 01:18:40;;;;;;;2.38;1.63;;;;;;;11.40;77.97;98942.97;5014364;28;20437;-87
2022/11/04 01:21:10;;;;;;;2.50;1.50;;;;;;;11.31;77.08;98943.16;5013859;28;20069;-86
2022/11/04 01:23:37;;;;;;;2.08;1.52;;;;;;;11.29;77.07;98943.50;5012030;28;20046;-87
2022/11/04 01:26:08;;;;;;;3.25;1.60;;;;;;;11.34;76.46;98937.69;5014074;28;20056;-87
2022/11/04 01:28:36;;;;;;;2.45;1.98;;;;;;;11.17;76.49;98941.59;5014047;28;20045;-87
2022/11/04 01:31:06;;;;;;;2.50;1.80;;;;;;;11.30;77.02;98955.47;5013759;28;20065;-86
2022/11/04 01:33:36;;;;;;;3.03;1.85;;;;;;;11.37;77.51;98950.88;5013878;28;20058;-87
2022/11/04 01:36:04;;;;;;;3.25;2.40;;;;;;;11.37;77.10;98956.47;5014171;28;20402;-87
2022/11/04 01:38:31;;;;;;;2.85;1.77;;;;;;;11.43;76.64;98964.59;5009663;28;20049;-87
2022/11/04 01:40:59;;;;;;;4.10;2.20;;;;;;;11.43;77.09;98965.38;5006197;28;20057;-87
2022/11/04 01:43:45;;;;;;;3.30;2.10;;;;;;;11.51;76.98;98967.19;5013678;28;20433;-86
2022/11/04 01:46:19;;;;;;;3.97;2.22;;;;;;;11.47;76.67;98973.84;5013995;28;20050;-87
2022/11/04 01:48:47;;;;;;;4.47;2.35;;;;;;;11.53;76.48;98966.84;5012203;28;20054;-87
2022/11/04 01:51:15;;;;;;;4.50;2.95;;;;;;;11.58;76.72;98966.56;5006458;28;20548;-87
2022/11/04 01:53:50;;;;;;;4.55;2.53;;;;;;;11.42;75.95;98969.31;5012545;28;20065;-87
2022/11/04 01:56:19;;;;;;;3.65;2.47;;;;;;;11.40;76.27;98966.09;5013692;28;20065;-87
2022/11/04 01:58:51;;;;;;;4.22;3.08;;;;;;;11.51;76.86;98977.56;5013128;28;20405;-87
2022/11/04 02:01:19;;;;;;;3.75;2.90;;;;;;;11.55;76.33;98978.47;5012470;28;20522;-86
2022/11/04 02:03:51;;;;;;;4.60;2.90;;;;;;;11.37;75.48;98975.97;5012343;28;20057;-86
2022/11/04 02:06:21;;;;;;;3.60;2.40;;;;;;;11.44;75.52;98980.13;5012563;28;20414;-86
2022/11/04 02:08:49;;;;;;;3.50;2.92;;;;;;;11.42;75.92;98979.66;5012631;28;20391;-86
2022/11/04 02:14:03;;;;;;;3.00;2.70;;;;;;;11.55;75.50;98973.69;5011863;28;20060;-86
2022/11/04 02:16:38;;;;;;;4.90;3.20;;;;;;;11.62;76.02;98980.63;5013001;28;20050;-87
2022/11/04 02:19:23;;;;;;;6.00;3.42;;;;;;;11.57;75.56;98981.69;5012845;28;20050;-86
2022/11/04 02:22:13;;;;;;;4.50;3.35;;;;;;;11.60;75.92;98982.97;5011273;28;20046;-85
2022/11/04 02:25:03;;;;;;;5.28;3.90;;;;;;;11.55;75.25;98978.47;5006306;28;20076;-85
2022/11/04 02:27:42;;;;;;;4.22;3.28;;;;;;;11.40;74.70;98974.44;5012889;28;20050;-84
2022/11/04 02:30:15;;;;;;;4.57;3.78;;;;;;;11.40;75.69;98966.09;5013626;28;20050;-85
2022/11/04 02:33:06;;;;;;;6.30;3.70;;;;;;;11.45;76.03;98965.84;5016510;28;20057;-86
2022/11/04 02:35:42;;;;;;;4.30;3.40;;;;;;;11.33;75.07;98965.91;5015969;28;20050;-84
2022/11/04 02:38:19;;;;;;;5.05;3.78;;;;;;;11.37;75.78;98964.81;5003800;28;20045;-85
2022/11/04 02:40:58;;;;;;;5.05;3.70;;;;;;;11.34;75.53;98948.81;5008725;28;20056;-86
2022/11/04 02:43:36;;;;;;;5.05;3.47;;;;;;;11.30;75.61;98947.13;5016710;28;20054;-86
2022/11/04 02:46:13;;;;;;;6.80;3.35;;;;;;;11.19;75.97;98955.16;5015394;28;20058;-86
2022/11/04 02:48:47;;;;;;;3.70;3.08;;;;;;;11.17;75.46;98949.13;5003327;28;20046;-85
2022/11/04 02:51:19;;;;;;;4.90;3.42;;;;;;;11.10;75.89;98949.75;5000393;28;20173;-85
2022/11/04 02:53:52;;;;;;;4.55;3.33;;;;;;;11.07;75.54;98958.03;5008216;28;20482;-86
2022/11/04 02:56:22;;;;;;;4.95;3.55;;;;;;;11.03;75.95;98966.28;5015861;28;20064;-86
2022/11/04 02:58:57;;;;;;;6.47;3.22;;;;;;;10.93;76.54;98962.00;5016080;28;20061;-86
2022/11/04 03:01:34;;;;;;;5.63;4.03;;;;;;;10.93;76.16;98978.72;5016186;28;20061;-86
2022/11/04 03:04:08;;;;;;;7.45;3.28;;;;;;;10.94;75.28;98972.00;5015738;28;20053;-86
2022/11/04 03:06:37;;;;;;;3.90;2.72;;;;;;;10.99;75.71;98976.50;5015481;28;20049;-85
2022/11/04 03:09:06;;;;;;;5.30;3.22;;;;;;;10.92;76.02;98985.47;5015590;28;20410;-86
2022/11/04 03:11:34;;;;;;;7.22;3.30;;;;;;;10.88;75.85;98981.78;5016123;28;20076;-86
2022/11/04 03:14:06;;;;;;;5.47;3.00;;;;;;;10.86;75.62;98978.53;5016051;28;20144;-86
2022/11/04 03:16:38;;;;;;;4.80;2.78;;;;;;;10.85;75.62;98976.88;5015844;28;20061;-86
2022/11/04 03:19:14;;;;;;;5.90;3.20;;;;;;;10.87;75.52;98991.28;5015703;28;20489;-86
2022/11/04 03:21:51;;;;;;;3.92;3.05;;;;;;;10.91;75.98;98986.63;5014589;28;20050;-85
2022/11/04 03:24:18;;;;;;;5.60;3.17;;;;;;;10.87;75.63;98998.81;5010470;28;20054;-86
2022/11/04 03:26:55;;;;;;;6.53;3.70;;;;;;;10.89;76.31;98988.94;5013029;28;20421;-86
2022/11/04 03:29:30;;;;;;;4.43;3.13;;;;;;;10.87;75.64;98998.81;5009573;28;20471;-86
2022/11/04 03:32:08;;;;;;;5.43;3.30;;;;;;;10.85;75.58;98985.25;5014744;28;20050;-86
2022/11/04 03:34:37;;;;;;;6.80;3.70;;;;;;;10.92;75.57;98990.25;5014833;28;20062;-77
2022/11/04 03:37:05;;;;;;;3.60;3.05;;;;;;;10.95;74.82;98986.72;5006837;28;20057;-78
2022/11/04 03:39:33;;;;;;;6.63;3.20;;;;;;;10.94;74.79;98999.84;5014980;28;20057;-79
2022/11/04 03:42:18;;;;;;;7.88;3.45;;;;;;;10.84;74.76;98999.56;5014669;28;20062;-77
2022/11/04 03:44:48;;;;;;;6.18;3.30;;;;;;;10.81;75.36;98994.66;5015290;28;20057;-77
2022/11/04 03:47:20;;;;;;;4.28;2.70;;;;;;;10.72;75.15;99000.38;5015114;28;20058;-77
2022/11/04 03:49:48;;;;;;;5.05;2.92;;;;;;;10.74;75.39;99003.63;5014892;28;20570;-77
2022/11/04 03:52:17;;;;;;;4.13;2.55;;;;;;;10.65;75.12;99005.75;5013465;28;20061;-77
2022/11/04 03:54:46;;;;;;;6.20;2.63;;;;;;;10.70;75.27;99005.50;5013082;28;20050;-78
2022/11/04 03:57:41;;;;;;;6.07;3.15;;;;;;;10.71;75.00;99004.34;5013817;28;20053;-77
2022/11/04 04:00:12;;;;;;;7.85;3.22;;;;;;;10.71;75.58;98998.78;5014709;28;20049;-77
2022/11/04 04:02:49;;;;;;;6.20;2.80;;;;;;;10.70;74.98;99009.06;5014382;28;20053;-77
2022/11/04 04:05:27;;;;;;;4.38;2.55;;;;;;;10.75;74.90;99005.22;5007825;28;20061;-77
2022/11/04 04:08:02;;;;;;;7.63;2.65;;;;;;;10.63;75.08;99002.50;5013685;28;20065;-77
2022/11/04 04:10:40;;;;;;;4.93;2.42;;;;;;;10.68;75.51;99005.03;5006557;28;20054;-77
2022/11/04 04:13:22;;;;;;;5.38;2.25;;;;;;;10.60;74.96;99023.47;5006458;28;20422;-77
2022/11/04 04:15:55;;;;;;;5.15;2.60;;;;;;;10.64;74.89;99015.25;5006468;28;20057;-77
2022/11/04 04:18:31;;;;;;;5.47;2.10;;;;;;;10.65;74.86;99019.66;5014064;28;20056;-77
2022/11/04 04:21:05;;;;;;;7.75;2.22;;;;;;;10.62;74.25;99023.13;5004658;28;20065;-77
2022/11/04 04:29:08;;;;;;;5.85;2.20;;;;;;;10.56;73.81;99014.19;5010561;28;20057;-78
2022/11/04 04:31:51;;;;;;;5.03;2.25;;;;;;;10.54;74.06;99017.34;5009868;28;20062;-78
2022/11/04 04:34:22;;;;;;;6.57;2.70;;;;;;;10.50;74.24;99016.44;5008341;28;20054;-78
2022/11/04 04:36:54;;;;;;;6.30;2.17;;;;;;;10.43;74.25;99016.19;5011772;28;20058;-77
2022/11/04 04:45:04;;;;;;;5.45;1.90;;;;;;;10.34;74.77;99035.00;5017024;28;20081;-77
2022/11/04 04:47:34;;;;;;;;;;;;;;;10.35;73.90;99037.44;5013320;28;20046;-77
2022/11/04 04:50:03;;;;;;;4.75;1.73;;;;;;;10.38;74.88;99040.69;5004294;28;19922;-78
2022/11/04 04:52:37;;;;;;;7.22;1.80;;;;;;;10.42;74.07;99036.03;5013853;28;20050;-77
2022/11/04 04:55:05;;;;;;;3.45;1.55;;;;;;;10.40;75.24;99050.31;5014011;28;20058;-77
2022/11/04 04:57:32;;;;;;;5.43;1.77;;;;;;;10.38;74.53;99049.03;5013485;28;20179;-77
2022/11/04 04:59:59;;;;;;;6.55;2.17;;;;;;;10.34;74.90;99049.72;5013383;28;20390;-77
2022/11/04 05:02:29;;;;;;;5.18;1.73;;;;;;;10.40;74.92;99055.06;5013478;28;20532;-77
2022/11/04 05:04:58;;;;;;;;;;;;;;;10.37;74.55;99050.97;5012918;28;20531;-77
2022/11/04 05:07:26;;;;;;;6.72;1.90;;;;;;;10.39;73.95;99059.00;5013077;28;19928;-77
2022/11/04 05:09:58;;;;;;;4.47;1.50;;;;;;;10.40;74.73;99057.84;5013266;28;20066;-78
2022/11/04 05:13:24;;;;;;;4.13;1.33;;;;;;;10.37;74.59;99067.69;5013208;28;20058;-78
2022/11/04 05:15:15;;;;;;;4.78;1.92;;;;;;;10.33;73.81;99067.59;5015627;28;20414;-77
2022/11/04 05:20:33;;;;;;;4.68;1.42;;;;;;;10.34;73.48;99085.09;4990365;28;20061;-77
2022/11/04 05:26:35;;;;;;;4.43;1.73;;;;;;;10.25;73.36;99081.59;4953273;28;20533;-78
2022/11/04 05:34:32;;;;;;;;;;;;;;;;;;;;;
2022/11/04 05:47:18;;;;;;;3.15;1.40;;;;;;;10.34;73.42;99101.78;5001197;28;20065;-77
2022/11/04 05:50:00;;;;;;;3.78;1.60;;;;;;;10.38;72.66;99101.91;5030222;28;20045;-77
2022/11/04 05:52:44;;;;;;;;;;;;;;;;;;;;;
2022/11/04 05:59:08;;;;;;;4.38;1.30;;;;;;;10.47;73.62;99095.06;5016175;28;20052;-77
2022/11/04 06:02:07;;;;;;;4.43;1.83;;;;;;;10.62;73.51;99109.44;5034286;28;20532;-77
2022/11/04 06:04:35;;;;;;;4.20;2.13;;;;;;;10.63;73.42;99106.31;5017299;28;20069;-77
2022/11/04 06:07:13;;;;;;;4.55;1.83;;;;;;;10.66;72.62;99110.38;5016021;28;20061;-77
2022/11/04 06:09:49;;;;;;;6.82;2.00;;;;;;;10.72;72.48;99109.78;5023237;28;20058;-78
2022/11/04 06:12:42;;;;;;;3.50;1.58;;;;;;;10.75;72.46;99113.84;5031541;28;20058;-78
2022/11/04 06:15:23;;;;;;;5.07;1.77;;;;;;;10.80;72.51;99112.81;5011617;28;20421;-78
2022/11/04 06:18:35;;;;;;;5.45;2.13;;;;;;;10.85;72.08;99110.59;5025061;28;20053;-78
2022/11/04 06:21:28;;;;;;;4.30;1.70;;;;;;;10.81;71.21;99114.44;4964779;28;20061;-78
2022/11/04 06:24:46;;;;;;;5.68;2.22;;;;;;;10.88;71.77;99120.25;5025001;28;20049;-78
2022/11/04 06:27:45;;;;;;;4.75;2.38;;;;;;;10.93;72.15;99128.34;5021394;28;20061;-79
2022/11/04 06:33:24;;;;;;;5.28;2.35;;;;;;;10.87;70.72;99136.13;5000180;28;20540;-77
2022/11/04 06:36:13;;;;;;;5.30;1.90;;;;;;;10.92;71.69;99144.25;5023987;28;20053;-78
2022/11/04 06:51:51;;;;;;;7.00;2.80;;;;;;;10.89;70.19;99161.66;4950127;28;20069;-78
2022/11/04 06:54:20;;;;;;;4.88;2.13;;;;;;;10.95;69.99;99165.84;5012059;28;20073;-80
2022/11/04 06:56:47;;;;;;;5.43;2.35;;;;;;;10.99;70.26;99165.16;5011595;28;20058;-81
2022/11/04 06:59:16;;;;;;;6.20;2.63;;;;;;;11.06;71.26;99173.72;5023612;28;20061;-77
2022/11/04 07:01:45;;;;;;;6.75;2.83;;;;;;;11.11;72.36;99170.72;5031356;28;20395;-78
2022/11/04 07:04:13;;;;;;;3.83;1.88;;;;;;;11.17;72.32;99172.09;5030815;28;20504;-77
2022/11/04 07:06:43;;;;;;;5.03;2.00;;;;;;;11.23;72.88;99181.81;5029262;28;20485;-76
2022/11/04 07:09:12;;;;;;;3.53;1.98;;;;;;;11.29;73.02;99190.78;5029446;28;20064;-77
2022/11/04 07:11:40;;;;;;;5.47;2.10;;;;;;;11.35;72.26;99181.81;5024307;28;20486;-77
2022/11/04 07:14:07;;;;;;;5.07;1.90;;;;;;;11.42;71.75;99194.34;5006908;28;20069;-76
2022/11/04 07:16:35;;;;;;;6.38;2.00;;;;;;;11.44;72.11;99190.03;5031379;28;20064;-76
2022/11/04 07:19:02;;;;;;;5.82;2.30;;;;;;;11.50;70.92;99197.00;5032333;28;20049;-75
2022/11/04 07:21:31;;;;;;;7.95;1.98;;;;;;;11.59;71.42;99205.25;5034396;28;20065;-76
2022/11/04 07:23:58;;;;;;;7.30;2.50;;;;;;;11.65;70.41;99206.59;5034246;28;20057;-76
2022/11/04 07:26:26;;;;;;;4.35;2.00;;;;;;;11.74;71.15;99217.66;5034820;28;20053;-77
2022/11/04 07:28:53;;;;;;;6.68;2.92;;;;;;;11.87;71.47;99226.78;5033506;28;20062;-76
2022/11/04 07:31:21;;;;;;;4.43;1.60;;;;;;;11.84;69.01;99222.72;5039569;28;20469;-76
2022/11/04 07:33:50;;;;;;;4.13;1.70;;;;;;;11.96;68.67;99219.09;5029724;28;20053;-78
2022/11/04 07:36:18;;;;;;;3.30;1.42;;;;;;;11.99;67.21;99218.41;5030675;28;20056;-77
2022/11/04 07:38:46;;;;;;;5.15;1.92;;;;;;;12.19;67.18;99214.56;5029415;28;20058;-77
2022/11/04 07:41:15;;;;;;;5.93;1.60;;;;;;;12.31;68.27;99210.13;5030763;28;20410;-76
2022/11/04 07:43:42;;;;;;;5.00;2.05;;;;;;;12.51;68.66;99209.06;5031904;28;20450;-77
2022/11/04 07:46:10;;;;;;;5.15;2.45;;;;;;;12.66;68.70;99212.22;5032337;28;20057;-77
2022/11/04 07:48:38;;;;;;;7.18;2.75;;;;;;;12.75;69.15;99221.25;5031302;28;20498;-75
2022/11/04 07:51:07;;;;;;;7.20;2.58;;;;;;;12.86;69.06;99227.13;5016923;28;20501;-76
2022/11/04 07:53:35;;;;;;;5.03;2.37;;;;;;;12.99;69.96;99231.44;5027539;28;20489;-77
2022/11/04 07:56:22;;;;;;;3.33;2.15;;;;;;;13.24;69.61;99220.06;5026604;28;20057;-78
2022/11/04 07:58:51;;;;;;;5.78;1.60;;;;;;;13.30;65.89;99230.63;5020565;28;20068;-77
2022/11/04 08:01:22;;;;;;;4.53;1.67;;;;;;;13.34;64.12;99234.31;5024172;28;20080;-76
2022/11/04 08:03:51;;;;;;;8.65;1.77;;;;;;;13.42;61.80;99229.72;5019544;28;20065;-79
2022/11/04 08:06:20;;;;;;;3.60;1.50;;;;;;;13.35;61.86;99241.53;5019945;28;20066;-78
2022/11/04 08:08:48;;;;;;;4.68;1.55;;;;;;;13.81;61.96;99227.78;5025550;28;20049;-80
2022/11/04 08:11:18;;;;;;;4.85;1.90;;;;;;;13.89;61.64;99228.75;5024418;28;20053;-78
2022/11/04 08:13:47;;;;;;;3.45;1.42;;;;;;;14.16;61.18;99232.50;5020423;28;20499;-78
2022/11/04 08:16:16;;;;;;;7.20;1.50;;;;;;;14.10;59.21;99233.19;5022744;28;20068;-78
2022/11/04 08:18:44;;;;;;;4.95;1.20;;;;;;;14.51;59.16;99234.41;5028460;28;20497;-79
2022/11/04 08:21:12;;;;;;;3.20;1.10;;;;;;;14.71;59.03;99234.38;5018433;28;20049;-80
2022/11/04 08:23:41;;;;;;;4.30;1.38;;;;;;;16.07;54.35;99238.50;5022943;28;20053;-82
2022/11/04 08:26:10;;;;;;;2.95;1.35;;;;;;;17.31;50.25;99228.94;5021988;28;20057;-80
2022/11/04 08:28:39;;;;;;;2.55;1.42;;;;;;;18.94;46.58;99227.28;5025843;28;20057;-78
2022/11/04 08:31:10;;;;;;;3.00;1.10;;;;;;;20.58;43.22;99228.13;5028617;28;20049;-82
2022/11/04 08:33:37;;;;;;;6.63;1.63;;;;;;;21.07;43.79;99222.53;5024102;28;20053;-79
2022/11/04 08:36:07;;;;;;;3.47;1.40;;;;;;;22.13;39.33;99221.09;5021982;28;20053;-79
2022/11/04 08:38:36;;;;;;;5.30;1.08;;;;;;;21.46;42.11;99227.91;5017848;28;20077;-81
2022/11/04 08:41:06;;;;;;;3.00;1.10;;;;;;;20.06;42.77;99236.44;5021777;28;20050;-78
2022/11/04 08:43:34;;;;;;;3.97;1.20;;;;;;;20.27;44.41;99232.72;5018131;28;20056;-78
2022/11/04 08:46:05;;;;;;;3.42;1.30;;;;;;;20.46;42.41;99228.56;5019431;28;20064;-78
2022/11/04 08:48:37;;;;;;;3.83;1.30;;;;;;;19.63;42.73;99228.03;5018162;28;20140;-78
2022/11/04 08:51:07;;;;;;;3.72;1.30;;;;;;;20.50;43.58;99237.84;5023367;28;20058;-79
2022/11/04 08:53:34;;;;;;;;;;;;;;;21.22;40.18;99226.88;5026099;28;20500;-80
2022/11/04 08:56:09;;;;;;;2.95;1.50;;;;;;;22.53;37.56;99216.56;5018196;28;20235;-79
2022/11/04 08:58:36;;;;;;;3.40;1.20;;;;;;;22.63;36.35;99224.13;4999389;28;20053;-80
2022/11/04 09:01:06;;;;;;;2.53;1.25;;;;;;;24.44;35.86;99234.78;5007964;28;20054;-79
2022/11/04 09:03:36;;;;;;;4.30;1.35;;;;;;;25.59;33.59;99236.97;5008070;28;20068;-79
2022/11/04 09:06:03;;;;;;;6.05;1.52;;;;;;;25.73;32.89;99236.59;5003652;28;20069;-80
2022/11/04 09:08:31;;;;;;;2.90;1.20;;;;;;;26.37;31.14;99222.59;5007964;28;20099;-79
2022/11/04 09:10:58;;;;;;;3.45;1.15;;;;;;;28.01;31.12;99214.81;5004418;28;20057;-80
2022/11/04 09:13:25;;;;;;;6.13;1.45;;;;;;;27.38;29.48;99208.81;5003874;28;20057;-79
2022/11/04 09:15:54;;;;;;;4.18;1.30;;;;;;;28.05;28.40;99212.63;5005593;28;20061;-80
2022/11/04 09:18:22;;;;;;;4.63;1.27;;;;;;;28.03;30.37;99212.28;5008510;28;20483;-79
2022/11/04 09:20:50;;;;;;;4.07;1.58;;;;;;;28.68;26.66;99222.91;5006348;28;20072;-80
2022/11/04 09:23:17;;;;;;;3.33;1.20;;;;;;;27.48;29.61;99224.81;5008892;28;20072;-79
2022/11/04 09:25:44;;;;;;;4.72;1.60;;;;;;;28.31;27.88;99237.00;5003004;28;20520;-79
2022/11/04 09:28:11;;;;;;;5.00;1.42;;;;;;;27.72;29.23;99224.44;5007145;28;20065;-80
2022/11/04 09:30:39;;;;;;;3.78;1.60;;;;;;;28.67;27.95;99221.34;5007086;28;20062;-80
2022/11/04 09:33:06;;;;;;;3.55;1.55;;;;;;;28.39;28.57;99208.91;5008018;28;20057;-79
2022/11/04 09:35:35;;;;;;;3.70;1.55;;;;;;;28.37;27.24;99214.31;5005628;28;20054;-77
2022/11/04 09:38:02;;;;;;;3.70;1.55;;;;;;;27.90;27.89;99218.88;5004104;28;20069;-77
2022/11/04 09:40:33;;;;;;;8.98;1.40;;;;;;;28.04;27.41;99219.63;5004615;28;20058;-79
2022/11/04 09:43:13;;;;;;;3.30;1.40;;;;;;;29.24;27.12;99214.59;5008334;28;20385;-79
2022/11/04 09:45:44;;;;;;;4.97;1.45;;;;;;;29.81;26.64;99220.75;5003673;28;20526;-81
2022/11/04 09:48:26;;;;;;;4.95;2.00;;;;;;;30.05;25.08;99234.47;5004737;28;20064;-79
2022/11/04 09:50:59;;;;;;;3.38;1.40;;;;;;;29.40;26.94;99228.66;5006711;28;20058;-80
2022/11/04 09:53:34;;;;;;;2.80;1.33;;;;;;;30.45;24.84;99230.63;5008644;28;20112;-77
2022/11/04 09:56:06;;;;;;;4.47;1.42;;;;;;;30.43;24.66;99222.50;5005787;28;20084;-81
2022/11/04 09:58:37;;;;;;;3.72;1.20;;;;;;;30.39;23.88;99223.94;5013855;28;20049;-82
2022/11/04 10:01:15;;;;;;;5.68;1.65;;;;;;;30.31;24.93;99227.13;5017439;28;20061;-84
2022/11/04 10:03:52;;;;;;;3.93;1.90;;;;;;;29.44;24.83;99232.16;5023011;28;20073;-85
2022/11/04 10:06:36;;;;;;;3.28;1.30;;;;;;;28.86;26.88;99227.16;5020662;28;20492;-79
2022/11/04 10:09:30;;;;;;;3.45;1.65;;;;;;;27.77;27.51;99235.28;5022829;28;20065;-80
2022/11/04 10:12:10;;;;;;;1.92;1.10;;;;;;;26.28;29.03;99231.03;5022124;28;20127;-81
2022/11/04 10:14:56;;;;;;;2.97;1.20;;;;;;;25.45;30.58;99230.41;5026503;28;20049;-81
2022/11/04 10:17:47;;;;;;;4.47;1.45;;;;;;;23.82;31.83;99239.28;5021878;28;20056;-81
2022/11/04 10:20:27;;;;;;;4.05;1.77;;;;;;;23.95;33.24;99245.13;5025164;28;20061;-82
2022/11/04 10:23:01;;;;;;;4.15;1.33;;;;;;;23.17;33.94;99245.25;5025707;28;20064;-82
2022/11/04 10:25:39;;;;;;;3.35;1.45;;;;;;;22.81;34.25;99249.41;5027044;28;20085;-82
2022/11/04 10:28:13;;;;;;;4.57;1.48;;;;;;;21.91;35.98;99257.44;5022162;28;20072;-84
2022/11/04 10:30:44;;;;;;;4.28;1.40;;;;;;;21.60;36.58;99260.94;5022075;28;20069;-83
2022/11/04 10:33:19;;;;;;;4.00;1.25;;;;;;;21.56;37.13;99271.50;5024559;28;20092;-81
2022/11/04 10:35:50;;;;;;;3.95;1.45;;;;;;;21.50;37.79;99270.34;5026619;28;20410;-79
2022/11/04 10:38:22;;;;;;;5.28;1.40;;;;;;;21.69;37.84;99266.13;5026660;28;20057;-80
2022/11/04 10:40:52;;;;;;;4.97;1.63;;;;;;;22.62;36.80;99267.13;5026712;28;20053;-79
2022/11/04 10:43:29;;;;;;;3.80;1.38;;;;;;;23.42;35.48;99261.91;5025710;28;20049;-79
2022/11/04 10:46:10;;;;;;;3.35;1.33;;;;;;;23.71;34.36;99265.03;5025083;28;20065;-81
2022/11/04 10:48:45;;;;;;;3.22;1.40;;;;;;;23.50;34.74;99266.22;5022744;28;20049;-79
2022/11/04 10:51:19;;;;;;;3.78;1.20;;;;;;;23.17;34.72;99270.81;5020737;28;20072;-80
2022/11/04 10:53:53;;;;;;;3.05;1.20;;;;;;;22.89;34.75;99287.84;5023889;28;20478;-79
2022/11/04 10:56:32;;;;;;;3.65;1.35;;;;;;;22.65;34.87;99291.81;5026572;28;20062;-80
2022/11/04 10:59:07;;;;;;;3.87;1.40;;;;;;;22.39;35.62;99293.38;5026979;28;20081;-79
2022/11/04 11:01:35;;;;;;;3.92;1.30;;;;;;;22.42;35.47;99286.84;5025460;28;20065;-79
2022/11/04 11:04:08;;;;;;;4.53;1.50;;;;;;;22.15;36.26;99281.84;5026796;28;20061;-80
2022/11/04 11:06:37;;;;;;;2.80;1.33;;;;;;;22.18;36.25;99283.06;5014874;28;20054;-81
2022/11/04 11:09:28;;;;;;;4.78;1.40;;;;;;;22.12;36.24;99284.75;5028986;28;20053;-80
2022/11/04 11:11:58;;;;;;;3.95;1.70;;;;;;;22.07;36.69;99294.53;5025583;28;20057;-79
2022/11/04 11:14:34;;;;;;;3.53;1.30;;;;;;;21.88;36.54;99305.25;5021575;28;20065;-80
2022/11/04 11:17:22;;;;;;;2.72;1.05;;;;;;;21.42;37.06;99319.81;5025292;28;20413;-80
2022/11/04 11:19:55;;;;;;;2.97;1.30;;;;;;;21.17;38.37;99319.97;5022575;28;20058;-80
2022/11/04 11:22:37;;;;;;;2.40;1.30;;;;;;;20.84;38.39;99313.69;5023211;28;20057;-80
2022/11/04 11:25:22;;;;;;;4.55;1.40;;;;;;;20.70;39.48;99313.75;5026014;28;20049;-83
2022/11/04 11:27:51;;;;;;;4.68;1.42;;;;;;;20.42;39.47;99323.97;5026312;28;20417;-81
2022/11/04 11:30:25;;;;;;;4.30;1.63;;;;;;;20.12;40.68;99305.47;5022895;28;20057;-81
2022/11/04 11:32:58;;;;;;;4.35;1.48;;;;;;;19.99;40.42;99315.59;5026878;28;20053;-82
2022/11/04 11:35:31;;;;;;;4.32;1.42;;;;;;;19.51;40.30;99321.66;5016172;28;20070;-82
2022/11/04 11:38:00;;;;;;;5.25;2.00;;;;;;;19.35;40.54;99324.88;5026256;28;20852;-79
2022/11/04 11:40:32;;;;;;;4.30;1.63;;;;;;;19.24;40.81;99319.22;5027855;28;20062;-79
2022/11/04 11:43:02;;;;;;;4.05;1.50;;;;;;;19.15;41.36;99311.16;5028039;28;20057;-80
2022/11/04 11:45:32;;;;;;;2.75;1.35;;;;;;;18.93;42.60;99321.59;5013266;28;20150;-77
2022/11/04 11:47:59;;;;;;;3.85;1.45;;;;;;;18.77;43.13;99324.75;5018041;28;20065;-76
2022/11/04 11:50:33;;;;;;;3.50;1.27;;;;;;;18.69;42.87;99327.91;5014513;28;20068;-76
2022/11/04 11:53:16;;;;;;;3.60;1.35;;;;;;;18.42;43.66;99328.25;5013286;28;20084;-76
2022/11/04 11:55:50;;;;;;;2.67;1.20;;;;;;;18.37;43.71;99320.13;5019750;28;20072;-76
2022/11/04 11:58:26;;;;;;;3.13;1.05;;;;;;;18.23;43.81;99318.06;5011944;28;20057;-76
2022/11/04 12:01:00;;;;;;;3.28;1.15;;;;;;;18.09;44.89;99324.44;5010897;28;20062;-75
2022/11/04 12:03:32;;;;;;;2.42;1.35;;;;;;;17.97;44.06;99319.91;5022306;28;20056;-75
2022/11/04 12:06:14;;;;;;;4.50;1.38;;;;;;;17.81;45.15;99323.03;5025369;28;20069;-76
2022/11/04 12:09:03;;;;;;;3.97;1.38;;;;;;;17.75;45.76;99321.78;5021257;28;20417;-76
2022/11/04 12:11:43;;;;;;;5.03;1.60;;;;;;;17.66;45.99;99318.50;5010078;28;20065;-76
2022/11/04 12:14:16;;;;;;;4.80;1.58;;;;;;;17.59;45.87;99319.22;5001719;28;20053;-78
2022/11/04 12:16:55;;;;;;;5.15;1.58;;;;;;;17.53;45.93;99314.34;5018604;28;20120;-77
2022/11/04 12:19:40;;;;;;;2.78;1.38;;;;;;;17.44;45.93;99323.94;5023337;28;20053;-77
2022/11/04 12:22:18;;;;;;;3.08;1.25;;;;;;;17.35;46.82;99331.91;5016718;28;20066;-77
2022/11/04 12:24:55;;;;;;;4.20;1.63;;;;;;;17.36;46.70;99333.50;5029036;28;20061;-78
2022/11/04 12:27:33;;;;;;;3.85;1.25;;;;;;;17.31;46.50;99333.06;5023236;28;20095;-75
2022/11/04 12:30:07;;;;;;;3.97;1.40;;;;;;;17.27;47.00;99337.88;5025038;28;20065;-77
2022/11/04 12:32:45;;;;;;;4.93;1.50;;;;;;;17.31;47.53;99344.34;5018141;28;20054;-76
2022/11/04 12:35:30;;;;;;;3.75;1.88;;;;;;;17.28;47.17;99340.25;5018840;28;20068;-77
2022/11/04 12:38:13;;;;;;;3.30;1.48;;;;;;;17.20;47.25;99347.06;5019736;28;20060;-76
2022/11/04 12:40:49;;;;;;;4.82;1.80;;;;;;;17.22;47.23;99345.47;5017368;28;20421;-77
2022/11/04 12:43:25;;;;;;;4.50;1.60;;;;;;;17.15;47.42;99341.75;5025217;28;20157;-76
2022/11/04 12:46:04;;;;;;;4.65;1.30;;;;;;;17.06;47.42;99347.69;5019789;28;20050;-77
2022/11/04 12:49:05;;;;;;;4.15;1.33;;;;;;;16.96;47.84;99354.81;5026763;28;20072;-76
2022/11/04 12:51:43;;;;;;;4.25;1.50;;;;;;;16.88;47.98;99350.31;5026800;28;20057;-75
2022/11/04 12:54:40;;;;;;;6.32;2.72;;;;;;;16.85;48.41;99348.28;5021930;28;20053;-79
2022/11/04 12:57:18;;;;;;;4.70;1.63;;;;;;;16.68;48.67;99352.47;5021891;28;20060;-76
2022/11/04 13:00:06;;;;;;;3.28;1.63;;;;;;;16.68;49.15;99355.28;5020412;28;20070;-73
2022/11/04 13:02:39;;;;;;;4.53;2.00;;;;;;;16.57;49.30;99354.34;5022795;28;20056;-75
2022/11/04 13:05:16;;;;;;;4.65;1.50;;;;;;;16.53;49.75;99351.50;5019818;28;20061;-78
2022/11/04 13:07:50;;;;;;;5.10;1.60;;;;;;;16.54;49.70;99358.72;5016405;28;20453;-76
2022/11/04 13:10:22;;;;;;;4.75;1.70;;;;;;;16.46;50.20;99364.63;5012879;28;20049;-77
2022/11/04 13:12:52;;;;;;;4.88;1.73;;;;;;;16.44;50.81;99356.56;5015892;28;20060;-76
2022/11/04 13:15:24;;;;;;;7.68;2.00;;;;;;;16.49;50.64;99359.06;5028745;28;20057;-80
2022/11/04 13:18:00;;;;;;;4.15;1.77;;;;;;;16.44;50.45;99357.41;5024198;28;20065;-78